createdAt,value
2023-05-20T00:03:46.701Z,12.11
2023-05-20T00:08:50.033Z,12.11
2023-05-20T00:13:53.037Z,12.13
2023-05-20T00:18:57.119Z,12.17
2023-05-20T00:24:00.280Z,12.19
2023-05-20T00:29:03.386Z,12.18
2023-05-20T00:34:07.091Z,12.16
2023-05-20T00:39:10.120Z,12.13
2023-05-20T00:44:13.121Z,12.10
2023-05-20T00:49:16.349Z,12.10
2023-05-20T00:54:19.849Z,12.12
2023-05-20T00:59:23.373Z,12.15
2023-05-20T01:04:27.199Z,12.15
2023-05-20T01:09:32.091Z,12.15
2023-05-20T01:14:40.996Z,12.14
2023-05-20T01:19:45.778Z,12.09
2023-05-20T01:24:48.948Z,12.05
2023-05-20T01:29:53.031Z,12.04
2023-05-20T01:34:57.324Z,12.06
2023-05-20T01:40:01.067Z,12.10
2023-05-20T01:45:04.846Z,12.14
2023-05-20T01:50:08.617Z,12.14
2023-05-20T01:55:12.011Z,12.13
2023-05-20T02:00:15.459Z,12.07
2023-05-20T02:05:19.152Z,12.02
2023-05-20T02:10:22.160Z,12.03
2023-05-20T02:15:25.195Z,12.05
2023-05-20T02:20:28.996Z,12.09
2023-05-20T02:25:33.203Z,12.12
2023-05-20T02:30:39.816Z,12.12
2023-05-20T02:35:43.041Z,12.11
2023-05-20T02:40:46.037Z,12.07
2023-05-20T02:45:48.970Z,12.05
2023-05-20T02:50:53.278Z,12.03
2023-05-20T02:55:58.207Z,12.03
2023-05-20T03:01:01.624Z,12.07
2023-05-20T03:06:05.163Z,12.12
2023-05-20T03:11:08.377Z,12.18
2023-05-20T03:16:13.334Z,12.23
2023-05-20T03:21:16.638Z,12.27
2023-05-20T03:26:19.749Z,12.29
2023-05-20T03:31:22.812Z,12.30
2023-05-20T03:36:25.971Z,12.32
2023-05-20T03:41:28.999Z,12.37
2023-05-20T03:46:34.233Z,12.45
2023-05-20T03:51:37.446Z,12.56
2023-05-20T03:56:40.871Z,12.65
2023-05-20T04:01:43.833Z,12.69
2023-05-20T04:06:46.870Z,12.75
2023-05-20T04:11:49.878Z,12.80
2023-05-20T04:16:52.960Z,12.87
2023-05-20T04:21:57.166Z,12.96
2023-05-20T04:27:00.065Z,13.11
2023-05-20T04:32:03.842Z,13.30
2023-05-20T04:37:09.830Z,13.48
2023-05-20T04:42:13.754Z,13.59
2023-05-20T04:47:16.782Z,13.70
2023-05-20T04:52:19.974Z,13.84
2023-05-20T04:57:22.886Z,13.96
2023-05-20T05:02:25.989Z,14.09
2023-05-20T05:07:29.013Z,14.25
2023-05-20T05:12:32.002Z,14.47
2023-05-20T05:17:35.040Z,14.69
2023-05-20T05:22:39.864Z,14.85
2023-05-20T05:27:43.275Z,15.03
2023-05-20T05:32:46.322Z,15.18
2023-05-20T05:37:49.387Z,15.22
2023-05-20T05:42:52.802Z,15.19
2023-05-20T05:47:55.848Z,15.22
2023-05-20T05:52:59.534Z,15.29
2023-05-20T05:58:02.745Z,15.38
2023-05-20T06:03:05.842Z,15.51
2023-05-20T06:08:09.066Z,15.66
2023-05-20T06:13:11.965Z,15.85
2023-05-20T06:18:14.989Z,16.06
2023-05-20T06:23:17.885Z,16.28
2023-05-20T06:28:21.090Z,16.54
2023-05-20T06:33:27.632Z,17.01
2023-05-20T06:38:31.105Z,17.55
2023-05-20T06:43:34.629Z,17.96
2023-05-20T06:48:37.632Z,18.17
2023-05-20T06:53:40.840Z,18.54
2023-05-20T06:58:43.844Z,18.97
2023-05-20T07:03:46.903Z,19.20
2023-05-20T07:08:50.063Z,19.77
2023-05-20T07:13:53.779Z,21.05
2023-05-20T07:18:56.834Z,21.88
2023-05-20T07:24:00.006Z,22.34
2023-05-20T07:29:04.931Z,22.44
2023-05-20T07:34:07.968Z,22.60
2023-05-20T07:39:14.388Z,23.24
2023-05-20T07:44:22.475Z,23.48
2023-05-20T07:49:25.992Z,24.12
2023-05-20T07:54:28.998Z,25.18
2023-05-20T07:59:32.107Z,25.85
2023-05-20T08:04:36.120Z,24.93
2023-05-20T08:09:39.348Z,24.15
2023-05-20T08:14:42.357Z,23.92
2023-05-20T08:19:45.298Z,24.51
2023-05-20T08:24:48.521Z,24.22
2023-05-20T08:29:51.582Z,23.39
2023-05-20T08:34:54.794Z,22.57
2023-05-20T08:39:57.679Z,21.82
2023-05-20T08:45:01.975Z,21.25
2023-05-20T08:50:05.554Z,21.03
2023-05-20T08:55:10.493Z,21.05
2023-05-20T09:00:17.309Z,20.83
2023-05-20T09:05:21.338Z,20.45
2023-05-20T09:10:24.340Z,20.31
2023-05-20T09:15:27.449Z,20.34
2023-05-20T09:20:31.898Z,20.50
2023-05-20T09:25:36.646Z,20.81
2023-05-20T09:30:39.845Z,21.38
2023-05-20T09:35:43.157Z,21.95
2023-05-20T09:40:48.099Z,22.82
2023-05-20T09:45:51.469Z,24.08
2023-05-20T09:50:57.206Z,25.45
2023-05-20T09:56:00.213Z,27.62
2023-05-20T10:01:03.451Z,29.90
2023-05-20T10:06:35.919Z,31.05
2023-05-20T10:11:58.315Z,32.44
2023-05-20T10:17:14.086Z,34.20
2023-05-20T10:22:31.732Z,36.60
2023-05-20T10:27:48.139Z,38.64
2023-05-20T10:33:03.405Z,39.07
2023-05-20T10:38:11.512Z,37.54
2023-05-20T10:43:18.880Z,35.27
2023-05-20T10:48:34.563Z,33.94
2023-05-20T10:53:41.795Z,34.20
2023-05-20T10:58:45.309Z,35.57
2023-05-20T11:03:50.251Z,36.11
2023-05-20T11:08:53.593Z,36.49
2023-05-20T11:13:58.187Z,35.87
2023-05-20T11:19:01.180Z,35.51
2023-05-20T11:24:04.445Z,35.52
2023-05-20T11:29:07.962Z,35.52
2023-05-20T11:34:11.071Z,33.99
2023-05-20T11:39:15.075Z,32.71
2023-05-20T11:44:20.359Z,33.78
2023-05-20T11:49:23.368Z,35.21
2023-05-20T11:54:26.578Z,35.27
2023-05-20T11:59:29.903Z,34.86
2023-05-20T12:04:33.119Z,34.93
2023-05-20T12:09:36.317Z,35.48
2023-05-20T12:14:39.936Z,36.18
2023-05-20T12:19:43.013Z,35.98
2023-05-20T12:24:46.265Z,36.05
2023-05-20T12:29:49.273Z,36.29
2023-05-20T12:34:52.275Z,36.49
2023-05-20T12:39:55.184Z,36.49
2023-05-20T12:44:58.237Z,36.75
2023-05-20T12:50:01.889Z,37.15
2023-05-20T12:55:07.261Z,37.78
2023-05-20T13:00:11.730Z,37.96
2023-05-20T13:05:15.220Z,37.18
2023-05-20T13:10:18.896Z,35.99
2023-05-20T13:15:21.851Z,35.70
2023-05-20T13:20:24.867Z,35.52
2023-05-20T13:25:28.389Z,34.65
2023-05-20T13:30:32.962Z,32.87
2023-05-20T13:35:36.650Z,32.29
2023-05-20T13:40:39.593Z,31.87
2023-05-20T13:45:43.040Z,31.80
2023-05-20T13:50:46.283Z,31.87
2023-05-20T13:55:49.184Z,31.96
2023-05-20T14:00:52.395Z,31.20
2023-05-20T14:05:56.139Z,31.17
2023-05-20T14:10:59.120Z,31.40
2023-05-20T14:16:02.381Z,31.57
2023-05-20T14:21:05.789Z,30.96
2023-05-20T14:26:08.856Z,30.54
2023-05-20T14:31:11.891Z,30.22
2023-05-20T14:36:14.976Z,29.87
2023-05-20T14:41:17.980Z,29.80
2023-05-20T14:46:21.438Z,30.41
2023-05-20T14:51:24.507Z,31.01
2023-05-20T14:56:27.518Z,31.15
2023-05-20T15:01:30.519Z,30.86
2023-05-20T15:06:36.085Z,30.54
2023-05-20T15:11:39.092Z,30.24
2023-05-20T15:16:44.641Z,29.83
2023-05-20T15:21:49.829Z,29.54
2023-05-20T15:26:54.181Z,29.42
2023-05-20T15:31:57.163Z,29.05
2023-05-20T15:37:00.174Z,28.41
2023-05-20T15:42:03.697Z,27.76
2023-05-20T15:47:06.594Z,27.23
2023-05-20T15:52:09.704Z,26.80
2023-05-20T15:57:12.817Z,26.64
2023-05-20T16:02:16.587Z,26.40
2023-05-20T16:07:19.862Z,26.18
2023-05-20T16:12:24.191Z,26.02
2023-05-20T16:17:27.578Z,25.86
2023-05-20T16:22:30.618Z,25.64
2023-05-20T16:27:33.639Z,25.56
2023-05-20T16:32:37.149Z,25.46
2023-05-20T16:37:40.244Z,25.41
2023-05-20T16:42:45.093Z,25.35
2023-05-20T16:47:48.124Z,25.27
2023-05-20T16:52:51.312Z,25.11
2023-05-20T16:57:54.418Z,24.96
2023-05-20T17:02:57.477Z,24.79
2023-05-20T17:08:01.058Z,24.56
2023-05-20T17:13:04.458Z,24.33
2023-05-20T17:18:07.732Z,24.13
2023-05-20T17:23:10.889Z,23.94
2023-05-20T17:28:13.904Z,23.77
2023-05-20T17:33:17.607Z,23.55
2023-05-20T17:38:22.481Z,23.33
2023-05-20T17:43:25.894Z,23.10
2023-05-20T17:48:28.887Z,22.86
2023-05-20T17:53:31.831Z,22.63
2023-05-20T17:58:34.646Z,22.41
2023-05-20T18:03:40.103Z,22.17
2023-05-20T18:08:43.276Z,21.91
2023-05-20T18:13:47.104Z,21.68
2023-05-20T18:18:50.112Z,21.48
2023-05-20T18:23:53.110Z,21.28
2023-05-20T18:28:56.090Z,21.07
2023-05-20T18:33:59.020Z,20.84
2023-05-20T18:39:02.034Z,20.60
2023-05-20T18:44:05.859Z,20.37
2023-05-20T18:49:10.908Z,20.16
2023-05-20T18:54:13.936Z,19.96
2023-05-20T18:59:16.929Z,19.76
2023-05-20T19:04:19.934Z,19.57
2023-05-20T19:09:23.050Z,19.36
2023-05-20T19:14:26.251Z,19.18
2023-05-20T19:19:29.295Z,19.00
2023-05-20T19:24:32.881Z,18.85
2023-05-20T19:29:35.988Z,18.69
2023-05-20T19:34:39.112Z,18.54
2023-05-20T19:39:42.248Z,18.41
2023-05-20T19:44:46.886Z,18.28
2023-05-20T19:49:49.960Z,18.16
2023-05-20T19:54:53.067Z,18.03
2023-05-20T19:59:56.174Z,17.91
2023-05-20T20:04:59.558Z,17.79
2023-05-20T20:10:02.490Z,17.65
2023-05-20T20:15:05.909Z,17.54
2023-05-20T20:20:10.750Z,17.43
2023-05-20T20:25:14.074Z,17.31
2023-05-20T20:30:17.085Z,17.20
2023-05-20T20:35:22.851Z,17.09
2023-05-20T20:40:25.853Z,16.99
2023-05-20T20:45:28.764Z,16.88
2023-05-20T20:50:33.265Z,16.78
2023-05-20T20:55:36.258Z,16.67
2023-05-20T21:00:40.517Z,16.57
2023-05-20T21:05:44.681Z,16.45
2023-05-20T21:10:48.522Z,16.37
2023-05-20T21:15:51.568Z,16.33
2023-05-20T21:20:55.897Z,16.30
2023-05-20T21:25:58.859Z,16.24
2023-05-20T21:31:01.843Z,16.16
2023-05-20T21:36:05.302Z,16.07
2023-05-20T21:41:08.596Z,15.97
2023-05-20T21:46:11.878Z,15.85
2023-05-20T21:51:14.933Z,15.77
2023-05-20T21:56:18.127Z,15.71
2023-05-20T22:01:21.387Z,15.66
2023-05-20T22:06:26.100Z,15.60
2023-05-20T22:11:29.337Z,15.52
2023-05-20T22:16:32.362Z,15.42
2023-05-20T22:21:39.803Z,15.33
2023-05-20T22:26:52.452Z,15.27
2023-05-20T22:31:55.582Z,15.20
2023-05-20T22:36:58.682Z,15.15
2023-05-20T22:42:01.673Z,15.10
2023-05-20T22:47:04.822Z,15.03
2023-05-20T22:52:08.305Z,14.96
2023-05-20T22:57:12.746Z,14.89
2023-05-20T23:02:16.877Z,14.83
2023-05-20T23:07:19.881Z,14.80
2023-05-20T23:12:23.208Z,14.76
2023-05-20T23:17:26.153Z,14.66
2023-05-20T23:22:30.558Z,14.53
2023-05-20T23:27:33.962Z,14.37
2023-05-20T23:32:37.205Z,14.22
2023-05-20T23:37:41.146Z,14.12
2023-05-20T23:42:44.211Z,14.06
2023-05-20T23:47:48.265Z,13.97
2023-05-20T23:52:51.357Z,13.89
2023-05-20T23:57:54.872Z,13.78
